sensor_id;sensor_type;location;lat;lon;timestamp;pressure;altitude;pressure_sealevel;temperature
12918;BMP180;6526;54.312;13.092;2024-01-16T00:01:53;100336.00;;;3.00
12918;BMP180;6526;54.312;13.092;2024-01-16T00:04:19;100338.00;;;2.90
12918;BMP180;6526;54.312;13.092;2024-01-16T00:06:45;100338.00;;;2.80
12918;BMP180;6526;54.312;13.092;2024-01-16T00:09:11;100341.00;;;2.70
12918;BMP180;6526;54.312;13.092;2024-01-16T00:11:41;100352.00;;;2.70
12918;BMP180;6526;54.312;13.092;2024-01-16T00:14:08;100342.00;;;2.80
12918;BMP180;6526;54.312;13.092;2024-01-16T00:16:34;100347.00;;;3.00
12918;BMP180;6526;54.312;13.092;2024-01-16T00:19:00;100344.00;;;3.00
12918;BMP180;6526;54.312;13.092;2024-01-16T00:21:26;100348.00;;;2.80
12918;BMP180;6526;54.312;13.092;2024-01-16T00:23:52;100349.00;;;2.60
12918;BMP180;6526;54.312;13.092;2024-01-16T00:26:24;100366.00;;;2.60
12918;BMP180;6526;54.312;13.092;2024-01-16T00:28:50;100379.00;;;2.60
12918;BMP180;6526;54.312;13.092;2024-01-16T00:31:16;100391.00;;;2.60
12918;BMP180;6526;54.312;13.092;2024-01-16T00:33:42;100388.00;;;2.50
12918;BMP180;6526;54.312;13.092;2024-01-16T00:36:08;100387.00;;;2.50
12918;BMP180;6526;54.312;13.092;2024-01-16T00:38:34;100386.00;;;2.50
12918;BMP180;6526;54.312;13.092;2024-01-16T00:41:01;100384.00;;;2.60
12918;BMP180;6526;54.312;13.092;2024-01-16T00:43:27;100395.00;;;2.60
12918;BMP180;6526;54.312;13.092;2024-01-16T00:45:53;100407.00;;;2.60
12918;BMP180;6526;54.312;13.092;2024-01-16T00:48:19;100403.00;;;2.70
12918;BMP180;6526;54.312;13.092;2024-01-16T00:50:46;100394.00;;;2.80
12918;BMP180;6526;54.312;13.092;2024-01-16T00:53:18;100399.00;;;2.80
12918;BMP180;6526;54.312;13.092;2024-01-16T00:55:44;100409.00;;;2.70
12918;BMP180;6526;54.312;13.092;2024-01-16T00:58:10;100410.00;;;2.60
12918;BMP180;6526;54.312;13.092;2024-01-16T01:00:36;100408.00;;;2.60
12918;BMP180;6526;54.312;13.092;2024-01-16T01:03:03;100408.00;;;2.50
12918;BMP180;6526;54.312;13.092;2024-01-16T01:05:29;100405.00;;;2.40
12918;BMP180;6526;54.312;13.092;2024-01-16T01:07:56;100394.00;;;2.40
12918;BMP180;6526;54.312;13.092;2024-01-16T01:10:23;100412.00;;;2.50
12918;BMP180;6526;54.312;13.092;2024-01-16T01:12:49;100408.00;;;2.40
12918;BMP180;6526;54.312;13.092;2024-01-16T01:15:17;100408.00;;;2.40
12918;BMP180;6526;54.312;13.092;2024-01-16T01:17:43;100418.00;;;2.50
12918;BMP180;6526;54.312;13.092;2024-01-16T01:20:09;100414.00;;;2.40
12918;BMP180;6526;54.312;13.092;2024-01-16T01:22:38;100412.00;;;2.40
12918;BMP180;6526;54.312;13.092;2024-01-16T01:25:04;100419.00;;;2.40
12918;BMP180;6526;54.312;13.092;2024-01-16T01:27:30;100418.00;;;2.30
12918;BMP180;6526;54.312;13.092;2024-01-16T01:29:56;100424.00;;;2.30
12918;BMP180;6526;54.312;13.092;2024-01-16T01:32:22;100433.00;;;2.30
12918;BMP180;6526;54.312;13.092;2024-01-16T01:34:48;100429.00;;;2.30
12918;BMP180;6526;54.312;13.092;2024-01-16T01:37:14;100429.00;;;2.40
12918;BMP180;6526;54.312;13.092;2024-01-16T01:39:41;100433.00;;;2.40
12918;BMP180;6526;54.312;13.092;2024-01-16T01:42:07;100442.00;;;2.40
12918;BMP180;6526;54.312;13.092;2024-01-16T01:44:33;100443.00;;;2.50
12918;BMP180;6526;54.312;13.092;2024-01-16T01:46:59;100465.00;;;2.50
12918;BMP180;6526;54.312;13.092;2024-01-16T01:49:25;100452.00;;;2.50
12918;BMP180;6526;54.312;13.092;2024-01-16T01:51:52;100460.00;;;2.50
12918;BMP180;6526;54.312;13.092;2024-01-16T01:54:20;100456.00;;;2.60
12918;BMP180;6526;54.312;13.092;2024-01-16T01:56:48;100458.00;;;2.60
12918;BMP180;6526;54.312;13.092;2024-01-16T01:59:15;100466.00;;;2.60
12918;BMP180;6526;54.312;13.092;2024-01-16T02:01:45;100469.00;;;2.60
12918;BMP180;6526;54.312;13.092;2024-01-16T02:04:12;100468.00;;;2.60
12918;BMP180;6526;54.312;13.092;2024-01-16T02:06:40;100470.00;;;2.60
12918;BMP180;6526;54.312;13.092;2024-01-16T02:09:07;100475.00;;;2.60
12918;BMP180;6526;54.312;13.092;2024-01-16T02:11:33;100480.00;;;2.60
12918;BMP180;6526;54.312;13.092;2024-01-16T02:14:00;100480.00;;;2.60
12918;BMP180;6526;54.312;13.092;2024-01-16T02:16:26;100483.00;;;2.70
12918;BMP180;6526;54.312;13.092;2024-01-16T02:18:53;100488.00;;;2.60
12918;BMP180;6526;54.312;13.092;2024-01-16T02:21:22;100481.00;;;2.60
12918;BMP180;6526;54.312;13.092;2024-01-16T02:23:48;100485.00;;;2.70
12918;BMP180;6526;54.312;13.092;2024-01-16T02:26:15;100491.00;;;2.80
12918;BMP180;6526;54.312;13.092;2024-01-16T02:28:41;100490.00;;;2.80
12918;BMP180;6526;54.312;13.092;2024-01-16T02:31:08;100505.00;;;2.70
12918;BMP180;6526;54.312;13.092;2024-01-16T02:33:34;100506.00;;;2.60
12918;BMP180;6526;54.312;13.092;2024-01-16T02:36:00;100517.00;;;2.50
12918;BMP180;6526;54.312;13.092;2024-01-16T02:38:26;100512.00;;;2.40
12918;BMP180;6526;54.312;13.092;2024-01-16T02:40:52;100501.00;;;2.40
12918;BMP180;6526;54.312;13.092;2024-01-16T02:43:18;100510.00;;;2.60
12918;BMP180;6526;54.312;13.092;2024-01-16T02:45:44;100521.00;;;2.50
12918;BMP180;6526;54.312;13.092;2024-01-16T02:48:10;100516.00;;;2.50
12918;BMP180;6526;54.312;13.092;2024-01-16T02:50:36;100519.00;;;2.50
12918;BMP180;6526;54.312;13.092;2024-01-16T02:53:02;100522.00;;;2.50
12918;BMP180;6526;54.312;13.092;2024-01-16T02:55:29;100528.00;;;2.50
12918;BMP180;6526;54.312;13.092;2024-01-16T02:57:55;100517.00;;;2.50
12918;BMP180;6526;54.312;13.092;2024-01-16T03:00:21;100525.00;;;2.50
12918;BMP180;6526;54.312;13.092;2024-01-16T03:02:48;100525.00;;;2.40
12918;BMP180;6526;54.312;13.092;2024-01-16T03:05:14;100532.00;;;2.30
12918;BMP180;6526;54.312;13.092;2024-01-16T03:07:41;100526.00;;;2.20
12918;BMP180;6526;54.312;13.092;2024-01-16T03:10:07;100535.00;;;2.20
12918;BMP180;6526;54.312;13.092;2024-01-16T03:12:33;100539.00;;;2.20
12918;BMP180;6526;54.312;13.092;2024-01-16T03:14:59;100540.00;;;2.30
12918;BMP180;6526;54.312;13.092;2024-01-16T03:17:25;100538.00;;;2.40
12918;BMP180;6526;54.312;13.092;2024-01-16T03:19:51;100536.00;;;2.40
12918;BMP180;6526;54.312;13.092;2024-01-16T03:22:17;100543.00;;;2.50
12918;BMP180;6526;54.312;13.092;2024-01-16T03:24:44;100553.00;;;2.30
12918;BMP180;6526;54.312;13.092;2024-01-16T03:27:10;100544.00;;;2.30
12918;BMP180;6526;54.312;13.092;2024-01-16T03:29:36;100564.00;;;2.40
12918;BMP180;6526;54.312;13.092;2024-01-16T03:32:02;100567.00;;;2.40
12918;BMP180;6526;54.312;13.092;2024-01-16T03:34:29;100573.00;;;2.40
12918;BMP180;6526;54.312;13.092;2024-01-16T03:36:56;100582.00;;;2.50
12918;BMP180;6526;54.312;13.092;2024-01-16T03:39:22;100582.00;;;2.50
12918;BMP180;6526;54.312;13.092;2024-01-16T03:41:48;100582.00;;;2.50
12918;BMP180;6526;54.312;13.092;2024-01-16T03:44:14;100594.00;;;2.60
12918;BMP180;6526;54.312;13.092;2024-01-16T03:46:40;100594.00;;;2.50
12918;BMP180;6526;54.312;13.092;2024-01-16T03:49:06;100603.00;;;2.50
12918;BMP180;6526;54.312;13.092;2024-01-16T03:51:33;100597.00;;;2.60
12918;BMP180;6526;54.312;13.092;2024-01-16T03:53:59;100610.00;;;2.50
12918;BMP180;6526;54.312;13.092;2024-01-16T03:56:25;100610.00;;;2.70
12918;BMP180;6526;54.312;13.092;2024-01-16T03:58:51;100605.00;;;2.70
12918;BMP180;6526;54.312;13.092;2024-01-16T04:01:17;100604.00;;;2.80
12918;BMP180;6526;54.312;13.092;2024-01-16T04:03:43;100609.00;;;2.70
12918;BMP180;6526;54.312;13.092;2024-01-16T04:06:16;100605.00;;;2.70
12918;BMP180;6526;54.312;13.092;2024-01-16T04:08:43;100598.00;;;2.50
12918;BMP180;6526;54.312;13.092;2024-01-16T04:11:13;100597.00;;;2.50
12918;BMP180;6526;54.312;13.092;2024-01-16T04:13:39;100601.00;;;2.50
12918;BMP180;6526;54.312;13.092;2024-01-16T04:16:06;100594.00;;;2.40
12918;BMP180;6526;54.312;13.092;2024-01-16T04:18:40;100601.00;;;2.40
12918;BMP180;6526;54.312;13.092;2024-01-16T04:21:06;100596.00;;;2.40
12918;BMP180;6526;54.312;13.092;2024-01-16T04:23:32;100601.00;;;2.30
12918;BMP180;6526;54.312;13.092;2024-01-16T04:25:58;100609.00;;;2.30
12918;BMP180;6526;54.312;13.092;2024-01-16T04:28:24;100605.00;;;2.30
12918;BMP180;6526;54.312;13.092;2024-01-16T04:30:51;100605.00;;;2.30
12918;BMP180;6526;54.312;13.092;2024-01-16T04:33:17;100606.00;;;2.20
12918;BMP180;6526;54.312;13.092;2024-01-16T04:35:43;100606.00;;;2.20
12918;BMP180;6526;54.312;13.092;2024-01-16T04:38:09;100608.00;;;2.10
12918;BMP180;6526;54.312;13.092;2024-01-16T04:40:35;100597.00;;;2.10
12918;BMP180;6526;54.312;13.092;2024-01-16T04:43:01;100602.00;;;2.10
12918;BMP180;6526;54.312;13.092;2024-01-16T04:45:28;100604.00;;;2.10
12918;BMP180;6526;54.312;13.092;2024-01-16T04:47:54;100617.00;;;2.00
12918;BMP180;6526;54.312;13.092;2024-01-16T04:50:20;100608.00;;;2.10
12918;BMP180;6526;54.312;13.092;2024-01-16T04:52:46;100607.00;;;2.20
12918;BMP180;6526;54.312;13.092;2024-01-16T04:55:12;100610.00;;;2.30
12918;BMP180;6526;54.312;13.092;2024-01-16T04:57:38;100626.00;;;2.40
12918;BMP180;6526;54.312;13.092;2024-01-16T05:00:05;100614.00;;;2.40
12918;BMP180;6526;54.312;13.092;2024-01-16T05:02:33;100614.00;;;2.40
12918;BMP180;6526;54.312;13.092;2024-01-16T05:04:59;100608.00;;;2.30
12918;BMP180;6526;54.312;13.092;2024-01-16T05:07:26;100609.00;;;2.30
12918;BMP180;6526;54.312;13.092;2024-01-16T05:09:52;100616.00;;;2.30
12918;BMP180;6526;54.312;13.092;2024-01-16T05:12:18;100612.00;;;2.30
12918;BMP180;6526;54.312;13.092;2024-01-16T05:14:44;100614.00;;;2.30
12918;BMP180;6526;54.312;13.092;2024-01-16T05:17:10;100614.00;;;2.30
12918;BMP180;6526;54.312;13.092;2024-01-16T05:19:36;100620.00;;;2.40
12918;BMP180;6526;54.312;13.092;2024-01-16T05:22:02;100615.00;;;2.40
12918;BMP180;6526;54.312;13.092;2024-01-16T05:24:28;100615.00;;;2.30
12918;BMP180;6526;54.312;13.092;2024-01-16T05:26:54;100618.00;;;2.30
12918;BMP180;6526;54.312;13.092;2024-01-16T05:29:20;100616.00;;;2.30
12918;BMP180;6526;54.312;13.092;2024-01-16T05:31:46;100606.00;;;2.20
12918;BMP180;6526;54.312;13.092;2024-01-16T05:34:12;100618.00;;;2.20
12918;BMP180;6526;54.312;13.092;2024-01-16T05:36:39;100608.00;;;2.10
12918;BMP180;6526;54.312;13.092;2024-01-16T05:39:05;100615.00;;;2.10
12918;BMP180;6526;54.312;13.092;2024-01-16T05:41:34;100619.00;;;2.20
12918;BMP180;6526;54.312;13.092;2024-01-16T05:44:00;100626.00;;;2.20
12918;BMP180;6526;54.312;13.092;2024-01-16T05:46:30;100636.00;;;2.20
12918;BMP180;6526;54.312;13.092;2024-01-16T05:48:57;100632.00;;;2.20
12918;BMP180;6526;54.312;13.092;2024-01-16T05:51:23;100605.00;;;2.10
12918;BMP180;6526;54.312;13.092;2024-01-16T05:53:49;100627.00;;;2.10
12918;BMP180;6526;54.312;13.092;2024-01-16T05:56:15;100627.00;;;2.10
12918;BMP180;6526;54.312;13.092;2024-01-16T05:58:41;100633.00;;;2.00
12918;BMP180;6526;54.312;13.092;2024-01-16T06:01:07;100615.00;;;2.00
12918;BMP180;6526;54.312;13.092;2024-01-16T06:03:33;100626.00;;;2.00
12918;BMP180;6526;54.312;13.092;2024-01-16T06:05:59;100623.00;;;2.00
12918;BMP180;6526;54.312;13.092;2024-01-16T06:08:25;100633.00;;;2.00
12918;BMP180;6526;54.312;13.092;2024-01-16T06:10:51;100620.00;;;2.00
12918;BMP180;6526;54.312;13.092;2024-01-16T06:13:19;100621.00;;;1.90
12918;BMP180;6526;54.312;13.092;2024-01-16T06:15:45;100613.00;;;1.80
12918;BMP180;6526;54.312;13.092;2024-01-16T06:18:11;100630.00;;;1.80
12918;BMP180;6526;54.312;13.092;2024-01-16T06:20:37;100630.00;;;1.80
12918;BMP180;6526;54.312;13.092;2024-01-16T06:23:03;100616.00;;;1.80
12918;BMP180;6526;54.312;13.092;2024-01-16T06:25:29;100622.00;;;1.70
12918;BMP180;6526;54.312;13.092;2024-01-16T06:27:55;100627.00;;;1.70
12918;BMP180;6526;54.312;13.092;2024-01-16T06:30:22;100633.00;;;1.70
12918;BMP180;6526;54.312;13.092;2024-01-16T06:32:49;100634.00;;;1.70
12918;BMP180;6526;54.312;13.092;2024-01-16T06:35:16;100629.00;;;1.70
12918;BMP180;6526;54.312;13.092;2024-01-16T06:37:43;100649.00;;;1.80
12918;BMP180;6526;54.312;13.092;2024-01-16T06:40:09;100641.00;;;1.80
12918;BMP180;6526;54.312;13.092;2024-01-16T06:42:36;100650.00;;;1.80
12918;BMP180;6526;54.312;13.092;2024-01-16T06:45:02;100644.00;;;1.70
12918;BMP180;6526;54.312;13.092;2024-01-16T06:47:29;100651.00;;;1.70
12918;BMP180;6526;54.312;13.092;2024-01-16T06:49:55;100656.00;;;1.70
12918;BMP180;6526;54.312;13.092;2024-01-16T06:52:21;100663.00;;;1.70
12918;BMP180;6526;54.312;13.092;2024-01-16T06:54:47;100657.00;;;1.80
12918;BMP180;6526;54.312;13.092;2024-01-16T06:57:13;100660.00;;;1.70
12918;BMP180;6526;54.312;13.092;2024-01-16T06:59:39;100662.00;;;1.70
12918;BMP180;6526;54.312;13.092;2024-01-16T07:02:05;100658.00;;;1.70
12918;BMP180;6526;54.312;13.092;2024-01-16T07:04:32;100660.00;;;1.80
12918;BMP180;6526;54.312;13.092;2024-01-16T07:06:58;100654.00;;;1.80
12918;BMP180;6526;54.312;13.092;2024-01-16T07:09:28;100657.00;;;1.80
12918;BMP180;6526;54.312;13.092;2024-01-16T07:11:54;100670.00;;;1.80
12918;BMP180;6526;54.312;13.092;2024-01-16T07:14:20;100655.00;;;1.70
12918;BMP180;6526;54.312;13.092;2024-01-16T07:16:47;100674.00;;;1.70
12918;BMP180;6526;54.312;13.092;2024-01-16T07:19:13;100675.00;;;1.60
12918;BMP180;6526;54.312;13.092;2024-01-16T07:21:39;100677.00;;;1.60
12918;BMP180;6526;54.312;13.092;2024-01-16T07:24:05;100689.00;;;1.70
12918;BMP180;6526;54.312;13.092;2024-01-16T07:26:31;100691.00;;;1.70
12918;BMP180;6526;54.312;13.092;2024-01-16T07:28:57;100689.00;;;1.70
12918;BMP180;6526;54.312;13.092;2024-01-16T07:31:25;100691.00;;;1.70
12918;BMP180;6526;54.312;13.092;2024-01-16T07:33:51;100694.00;;;1.70
12918;BMP180;6526;54.312;13.092;2024-01-16T07:36:17;100696.00;;;1.80
12918;BMP180;6526;54.312;13.092;2024-01-16T07:38:43;100709.00;;;1.80
12918;BMP180;6526;54.312;13.092;2024-01-16T07:41:09;100722.00;;;1.80
12918;BMP180;6526;54.312;13.092;2024-01-16T07:43:35;100715.00;;;1.90
12918;BMP180;6526;54.312;13.092;2024-01-16T07:46:01;100722.00;;;1.90
12918;BMP180;6526;54.312;13.092;2024-01-16T07:48:28;100727.00;;;1.90
12918;BMP180;6526;54.312;13.092;2024-01-16T07:50:55;100722.00;;;2.00
12918;BMP180;6526;54.312;13.092;2024-01-16T07:53:21;100739.00;;;1.90
12918;BMP180;6526;54.312;13.092;2024-01-16T07:55:47;100739.00;;;1.80
12918;BMP180;6526;54.312;13.092;2024-01-16T07:58:13;100731.00;;;1.90
12918;BMP180;6526;54.312;13.092;2024-01-16T08:00:39;100741.00;;;1.90
12918;BMP180;6526;54.312;13.092;2024-01-16T08:03:08;100737.00;;;2.00
12918;BMP180;6526;54.312;13.092;2024-01-16T08:05:37;100729.00;;;2.20
12918;BMP180;6526;54.312;13.092;2024-01-16T08:08:04;100737.00;;;2.30
12918;BMP180;6526;54.312;13.092;2024-01-16T08:10:30;100743.00;;;2.10
12918;BMP180;6526;54.312;13.092;2024-01-16T08:12:56;100732.00;;;1.90
12918;BMP180;6526;54.312;13.092;2024-01-16T08:15:22;100742.00;;;2.00
12918;BMP180;6526;54.312;13.092;2024-01-16T08:17:48;100743.00;;;2.10
12918;BMP180;6526;54.312;13.092;2024-01-16T08:20:14;100743.00;;;2.10
12918;BMP180;6526;54.312;13.092;2024-01-16T08:22:40;100740.00;;;2.20
12918;BMP180;6526;54.312;13.092;2024-01-16T08:25:07;100735.00;;;2.30
12918;BMP180;6526;54.312;13.092;2024-01-16T08:27:34;100737.00;;;2.40
12918;BMP180;6526;54.312;13.092;2024-01-16T08:30:00;100736.00;;;2.40
12918;BMP180;6526;54.312;13.092;2024-01-16T08:32:26;100744.00;;;2.60
12918;BMP180;6526;54.312;13.092;2024-01-16T08:34:52;100743.00;;;2.60
12918;BMP180;6526;54.312;13.092;2024-01-16T08:37:19;100749.00;;;2.60
12918;BMP180;6526;54.312;13.092;2024-01-16T08:39:45;100742.00;;;2.50
12918;BMP180;6526;54.312;13.092;2024-01-16T08:42:11;100752.00;;;2.60
12918;BMP180;6526;54.312;13.092;2024-01-16T08:44:38;100746.00;;;2.70
12918;BMP180;6526;54.312;13.092;2024-01-16T08:47:05;100738.00;;;2.80
12918;BMP180;6526;54.312;13.092;2024-01-16T08:49:32;100742.00;;;2.90
12918;BMP180;6526;54.312;13.092;2024-01-16T08:51:59;100742.00;;;3.00
12918;BMP180;6526;54.312;13.092;2024-01-16T08:54:25;100741.00;;;3.10
12918;BMP180;6526;54.312;13.092;2024-01-16T08:56:52;100744.00;;;3.20
12918;BMP180;6526;54.312;13.092;2024-01-16T08:59:18;100747.00;;;3.20
12918;BMP180;6526;54.312;13.092;2024-01-16T09:01:45;100748.00;;;3.30
12918;BMP180;6526;54.312;13.092;2024-01-16T09:04:11;100751.00;;;3.30
12918;BMP180;6526;54.312;13.092;2024-01-16T09:06:37;100755.00;;;3.30
12918;BMP180;6526;54.312;13.092;2024-01-16T09:09:03;100755.00;;;3.30
12918;BMP180;6526;54.312;13.092;2024-01-16T09:11:31;100754.00;;;3.30
12918;BMP180;6526;54.312;13.092;2024-01-16T09:13:57;100763.00;;;3.30
12918;BMP180;6526;54.312;13.092;2024-01-16T09:16:23;100766.00;;;3.30
12918;BMP180;6526;54.312;13.092;2024-01-16T09:18:49;100732.00;;;3.40
12918;BMP180;6526;54.312;13.092;2024-01-16T09:21:15;100776.00;;;3.50
12918;BMP180;6526;54.312;13.092;2024-01-16T09:23:42;100765.00;;;3.60
12918;BMP180;6526;54.312;13.092;2024-01-16T09:26:08;100771.00;;;3.80
12918;BMP180;6526;54.312;13.092;2024-01-16T09:28:34;100775.00;;;3.80
12918;BMP180;6526;54.312;13.092;2024-01-16T09:31:00;100772.00;;;3.80
12918;BMP180;6526;54.312;13.092;2024-01-16T09:33:26;100774.00;;;3.80
12918;BMP180;6526;54.312;13.092;2024-01-16T09:35:52;100771.00;;;3.80
12918;BMP180;6526;54.312;13.092;2024-01-16T09:38:18;100769.00;;;3.60
12918;BMP180;6526;54.312;13.092;2024-01-16T09:40:44;100770.00;;;3.60
12918;BMP180;6526;54.312;13.092;2024-01-16T09:43:12;100766.00;;;3.50
12918;BMP180;6526;54.312;13.092;2024-01-16T09:45:38;100768.00;;;3.50
12918;BMP180;6526;54.312;13.092;2024-01-16T09:48:05;100767.00;;;3.60
12918;BMP180;6526;54.312;13.092;2024-01-16T09:50:33;100775.00;;;3.50
12918;BMP180;6526;54.312;13.092;2024-01-16T09:53:00;100775.00;;;3.50
12918;BMP180;6526;54.312;13.092;2024-01-16T09:55:26;100772.00;;;3.60
12918;BMP180;6526;54.312;13.092;2024-01-16T09:57:53;100780.00;;;3.70
12918;BMP180;6526;54.312;13.092;2024-01-16T10:00:19;100768.00;;;3.60
12918;BMP180;6526;54.312;13.092;2024-01-16T10:02:46;100771.00;;;3.70
12918;BMP180;6526;54.312;13.092;2024-01-16T10:05:13;100763.00;;;3.70
12918;BMP180;6526;54.312;13.092;2024-01-16T10:07:41;100781.00;;;3.70
12918;BMP180;6526;54.312;13.092;2024-01-16T10:10:09;100777.00;;;3.70
12918;BMP180;6526;54.312;13.092;2024-01-16T10:12:40;100769.00;;;3.60
12918;BMP180;6526;54.312;13.092;2024-01-16T10:15:06;100775.00;;;3.90
12918;BMP180;6526;54.312;13.092;2024-01-16T10:17:40;100754.00;;;4.00
12918;BMP180;6526;54.312;13.092;2024-01-16T10:20:07;100763.00;;;4.10
12918;BMP180;6526;54.312;13.092;2024-01-16T10:22:33;100755.00;;;4.10
12918;BMP180;6526;54.312;13.092;2024-01-16T10:25:12;100755.00;;;3.90
12918;BMP180;6526;54.312;13.092;2024-01-16T10:27:42;100752.00;;;4.10
12918;BMP180;6526;54.312;13.092;2024-01-16T10:30:09;100759.00;;;4.30
12918;BMP180;6526;54.312;13.092;2024-01-16T10:32:41;100750.00;;;4.40
12918;BMP180;6526;54.312;13.092;2024-01-16T10:35:11;100743.00;;;4.50
12918;BMP180;6526;54.312;13.092;2024-01-16T10:40:23;100718.00;;;4.20
12918;BMP180;6526;54.312;13.092;2024-01-16T10:43:05;100740.00;;;3.90
12918;BMP180;6526;54.312;13.092;2024-01-16T10:45:34;100742.00;;;3.70
12918;BMP180;6526;54.312;13.092;2024-01-16T10:48:02;100742.00;;;3.60
12918;BMP180;6526;54.312;13.092;2024-01-16T10:50:32;100747.00;;;3.60
12918;BMP180;6526;54.312;13.092;2024-01-16T10:53:06;100741.00;;;3.60
12918;BMP180;6526;54.312;13.092;2024-01-16T10:58:12;100746.00;;;3.40
12918;BMP180;6526;54.312;13.092;2024-01-16T11:00:40;100754.00;;;3.50
12918;BMP180;6526;54.312;13.092;2024-01-16T11:03:11;100749.00;;;3.50
12918;BMP180;6526;54.312;13.092;2024-01-16T11:05:41;100758.00;;;3.60
12918;BMP180;6526;54.312;13.092;2024-01-16T11:08:09;100743.00;;;3.60
12918;BMP180;6526;54.312;13.092;2024-01-16T11:10:37;100751.00;;;3.50
12918;BMP180;6526;54.312;13.092;2024-01-16T11:13:05;100741.00;;;3.50
12918;BMP180;6526;54.312;13.092;2024-01-16T11:15:32;100739.00;;;3.60
12918;BMP180;6526;54.312;13.092;2024-01-16T11:18:00;100738.00;;;3.60
12918;BMP180;6526;54.312;13.092;2024-01-16T11:20:27;100749.00;;;3.50
12918;BMP180;6526;54.312;13.092;2024-01-16T11:22:54;100740.00;;;3.50
12918;BMP180;6526;54.312;13.092;2024-01-16T11:25:32;100745.00;;;3.40
12918;BMP180;6526;54.312;13.092;2024-01-16T11:28:09;100749.00;;;3.50
12918;BMP180;6526;54.312;13.092;2024-01-16T11:30:39;100739.00;;;3.60
12918;BMP180;6526;54.312;13.092;2024-01-16T11:33:06;100751.00;;;3.80
12918;BMP180;6526;54.312;13.092;2024-01-16T11:35:37;100748.00;;;3.80
12918;BMP180;6526;54.312;13.092;2024-01-16T11:38:08;100748.00;;;3.40
12918;BMP180;6526;54.312;13.092;2024-01-16T11:40:35;100747.00;;;3.30
12918;BMP180;6526;54.312;13.092;2024-01-16T11:43:40;100743.00;;;3.30
12918;BMP180;6526;54.312;13.092;2024-01-16T11:46:07;100749.00;;;3.30
12918;BMP180;6526;54.312;13.092;2024-01-16T11:48:34;100751.00;;;3.30
12918;BMP180;6526;54.312;13.092;2024-01-16T11:51:01;100758.00;;;3.20
12918;BMP180;6526;54.312;13.092;2024-01-16T11:53:46;100752.00;;;3.30
12918;BMP180;6526;54.312;13.092;2024-01-16T11:56:35;100766.00;;;3.40
12918;BMP180;6526;54.312;13.092;2024-01-16T12:02:02;100758.00;;;3.40
12918;BMP180;6526;54.312;13.092;2024-01-16T12:04:31;100755.00;;;3.50
12918;BMP180;6526;54.312;13.092;2024-01-16T12:06:58;100758.00;;;3.60
12918;BMP180;6526;54.312;13.092;2024-01-16T12:09:26;100747.00;;;3.70
12918;BMP180;6526;54.312;13.092;2024-01-16T12:12:02;100754.00;;;3.70
12918;BMP180;6526;54.312;13.092;2024-01-16T12:14:29;100745.00;;;3.70
12918;BMP180;6526;54.312;13.092;2024-01-16T12:17:14;100758.00;;;3.80
12918;BMP180;6526;54.312;13.092;2024-01-16T12:19:41;100742.00;;;4.00
12918;BMP180;6526;54.312;13.092;2024-01-16T12:22:14;100737.00;;;4.00
12918;BMP180;6526;54.312;13.092;2024-01-16T12:24:40;100736.00;;;4.10
12918;BMP180;6526;54.312;13.092;2024-01-16T12:27:07;100742.00;;;4.00
12918;BMP180;6526;54.312;13.092;2024-01-16T12:29:34;100762.00;;;3.90
12918;BMP180;6526;54.312;13.092;2024-01-16T12:34:34;100737.00;;;3.80
12918;BMP180;6526;54.312;13.092;2024-01-16T12:37:06;100744.00;;;3.80
12918;BMP180;6526;54.312;13.092;2024-01-16T12:39:33;100747.00;;;3.80
12918;BMP180;6526;54.312;13.092;2024-01-16T12:42:01;100740.00;;;3.90
12918;BMP180;6526;54.312;13.092;2024-01-16T12:44:28;100735.00;;;3.90
12918;BMP180;6526;54.312;13.092;2024-01-16T12:46:55;100736.00;;;4.00
12918;BMP180;6526;54.312;13.092;2024-01-16T12:49:25;100739.00;;;4.10
12918;BMP180;6526;54.312;13.092;2024-01-16T12:51:51;100735.00;;;4.00
12918;BMP180;6526;54.312;13.092;2024-01-16T12:54:18;100729.00;;;3.90
12918;BMP180;6526;54.312;13.092;2024-01-16T12:56:47;100738.00;;;4.00
12918;BMP180;6526;54.312;13.092;2024-01-16T12:59:14;100729.00;;;3.90
12918;BMP180;6526;54.312;13.092;2024-01-16T13:01:42;100730.00;;;3.70
12918;BMP180;6526;54.312;13.092;2024-01-16T13:04:10;100735.00;;;3.60
12918;BMP180;6526;54.312;13.092;2024-01-16T13:06:36;100736.00;;;3.50
12918;BMP180;6526;54.312;13.092;2024-01-16T13:09:10;100745.00;;;3.50
12918;BMP180;6526;54.312;13.092;2024-01-16T13:11:49;100731.00;;;3.60
12918;BMP180;6526;54.312;13.092;2024-01-16T13:14:15;100725.00;;;3.60
12918;BMP180;6526;54.312;13.092;2024-01-16T13:16:41;100725.00;;;3.70
12918;BMP180;6526;54.312;13.092;2024-01-16T13:19:07;100726.00;;;3.70
12918;BMP180;6526;54.312;13.092;2024-01-16T13:21:36;100724.00;;;3.60
12918;BMP180;6526;54.312;13.092;2024-01-16T13:24:06;100719.00;;;3.60
12918;BMP180;6526;54.312;13.092;2024-01-16T13:26:32;100725.00;;;3.60
12918;BMP180;6526;54.312;13.092;2024-01-16T13:28:59;100724.00;;;3.60
12918;BMP180;6526;54.312;13.092;2024-01-16T13:31:25;100718.00;;;3.60
12918;BMP180;6526;54.312;13.092;2024-01-16T13:33:51;100719.00;;;3.50
12918;BMP180;6526;54.312;13.092;2024-01-16T13:36:17;100718.00;;;3.60
12918;BMP180;6526;54.312;13.092;2024-01-16T13:38:44;100708.00;;;3.60
12918;BMP180;6526;54.312;13.092;2024-01-16T13:41:10;100721.00;;;3.60
12918;BMP180;6526;54.312;13.092;2024-01-16T13:43:37;100718.00;;;3.60
12918;BMP180;6526;54.312;13.092;2024-01-16T13:46:03;100715.00;;;3.60
12918;BMP180;6526;54.312;13.092;2024-01-16T13:48:29;100713.00;;;3.50
12918;BMP180;6526;54.312;13.092;2024-01-16T13:50:55;100705.00;;;3.40
12918;BMP180;6526;54.312;13.092;2024-01-16T13:53:21;100712.00;;;3.30
12918;BMP180;6526;54.312;13.092;2024-01-16T13:55:48;100718.00;;;3.20
12918;BMP180;6526;54.312;13.092;2024-01-16T13:58:14;100708.00;;;3.20
12918;BMP180;6526;54.312;13.092;2024-01-16T14:00:40;100715.00;;;3.20
12918;BMP180;6526;54.312;13.092;2024-01-16T14:03:06;100724.00;;;3.10
12918;BMP180;6526;54.312;13.092;2024-01-16T14:05:33;100716.00;;;3.10
12918;BMP180;6526;54.312;13.092;2024-01-16T14:07:59;100719.00;;;3.00
12918;BMP180;6526;54.312;13.092;2024-01-16T14:10:25;100717.00;;;3.00
12918;BMP180;6526;54.312;13.092;2024-01-16T14:12:51;100723.00;;;3.00
12918;BMP180;6526;54.312;13.092;2024-01-16T14:15:19;100719.00;;;3.10
12918;BMP180;6526;54.312;13.092;2024-01-16T14:17:49;100714.00;;;3.00
12918;BMP180;6526;54.312;13.092;2024-01-16T14:20:16;100726.00;;;2.90